Terminal Aerodrome Forecast
Issued by NWS Brownsville, TX

Home | Current Version | Previous Version | Text Only | Print | Product List | Glossary On
Versions: 1 2 3 4 5 6 7 8 9 10 11 12 13 14 15 16 17 18 19 20 21
000
FTUS44 KBRO 182300 RRA
TAFHRL
TAF
KHRL 182352Z 1900/1924 27005KT 5SM -RA BR SCT015 OVC025
      TEMPO 1900/1904 2SM -RA BR BKN009
     FM190400 16008KT 5SM BR BKN008
     FM191500 19008KT 6SM BR VCSH OVC018
     FM191800 25010KT P6SM VCSH OVC025
     FM192100 31012KT P6SM OVC050=

USA.gov is the U.S. government's official web portal to all federal, state and local government web resources and services.